Wellesbourne Mountford, United Kingdom
Current Conditions -  °F | °C
As of 9:20 PM on Wednesday 26 Nov 2014 (Local Time) from EGBE Reporting Station
Haze Haze  
Wind Chill: 46°   Ceiling: 200
Heat Index: 46°   Visibility: 0.93mi
Dew Point: 46°   Wind: 3mph
Humidity: 100%   Direction: 10°N
Pressure: 29.77"   Gusts: NA
Location:  52.18°N, 1.58°W
Report Text: EGBE 262120Z 01003KT 1500 BR OVC002 08/08 Q1008
Loading
Personal Weather Stations






























Interactive Weather Map New forecast layout! Learn more

10-Day Weather Forecast

Advertisements
Track Severe Weather on mobile